Time;durP1;ratioP1;P1;durP2;ratioP2;P2;SDS_P1;SDS_P2;PMS_P1;PMS_P2;Temp;Humidity;BMP_temperature;BMP_pressure;BME280_temperature;BME280_humidity;BME280_pressure;Samples;Min_cycle;Max_cycle;Signal;HPM_P1;HPM_P2
2021/07/22 00:02:13;;;;;;;11.27;10.17;;;20.70;1.00;;;;;;4960750;28;21172;-72
2021/07/22 00:04:40;;;;;;;10.17;8.83;;;20.70;1.00;;;;;;4954983;28;20840;-74
2021/07/22 00:07:06;;;;;;;12.17;9.23;;;20.70;1.00;;;;;;4964320;28;20461;-72
2021/07/22 00:09:34;;;;;;;11.67;9.33;;;20.70;1.00;;;;;;4964461;28;21342;-72
2021/07/22 00:12:01;;;;;;;11.63;9.60;;;20.70;1.00;;;;;;4965760;28;20465;-72
2021/07/22 00:14:29;;;;;;;10.33;9.30;;;20.60;1.00;;;;;;4960765;28;20461;-72
2021/07/22 00:16:56;;;;;;;10.80;9.50;;;20.60;1.00;;;;;;4957151;28;20468;-71
2021/07/22 00:19:22;;;;;;;12.50;9.63;;;20.60;1.00;;;;;;4952326;28;20468;-73
2021/07/22 00:21:49;;;;;;;12.37;9.20;;;20.60;1.00;;;;;;4959124;28;20548;-71
2021/07/22 00:24:16;;;;;;;12.57;10.37;;;20.60;1.00;;;;;;4960691;28;20465;-74
2021/07/22 00:26:44;;;;;;;14.30;10.63;;;20.60;1.00;;;;;;4964188;28;21303;-74
2021/07/22 00:29:10;;;;;;;11.50;10.07;;;20.60;1.00;;;;;;4953065;28;20448;-72
2021/07/22 00:31:37;;;;;;;12.10;9.60;;;20.60;1.00;;;;;;4960269;28;20440;-72
2021/07/22 00:34:04;;;;;;;11.90;10.70;;;20.60;1.00;;;;;;4961785;28;20985;-72
2021/07/22 00:36:30;;;;;;;9.80;8.70;;;20.60;1.00;;;;;;4964415;28;21295;-74
2021/07/22 00:38:57;;;;;;;11.27;9.60;;;20.60;1.00;;;;;;4967602;28;20789;-73
2021/07/22 00:41:23;;;;;;;10.23;9.13;;;20.50;1.00;;;;;;4962756;28;23552;-73
2021/07/22 00:43:51;;;;;;;12.33;10.07;;;20.50;1.00;;;;;;4962778;28;20610;-74
2021/07/22 00:46:18;;;;;;;11.90;9.90;;;20.50;1.00;;;;;;5027599;28;21085;-74
2021/07/22 00:48:45;;;;;;;12.20;9.60;;;20.50;1.00;;;;;;4959016;28;20428;-71
2021/07/22 00:51:11;;;;;;;10.40;9.40;;;20.50;1.00;;;;;;4963436;28;20967;-74
2021/07/22 00:53:39;;;;;;;11.23;10.03;;;20.50;1.00;;;;;;4959489;28;20488;-71
2021/07/22 00:56:06;;;;;;;10.80;9.40;;;20.50;1.00;;;;;;4968194;28;20469;-72
2021/07/22 00:58:33;;;;;;;13.40;10.17;;;20.50;1.00;;;;;;4964165;28;20429;-72
2021/07/22 01:01:00;;;;;;;12.20;9.80;;;20.50;1.00;;;;;;4966190;28;20478;-73
2021/07/22 01:03:27;;;;;;;10.73;9.63;;;20.50;1.00;;;;;;5032449;28;20467;-74
2021/07/22 01:05:54;;;;;;;11.33;9.53;;;20.50;1.00;;;;;;4964764;28;20690;-73
2021/07/22 01:08:20;;;;;;;11.63;10.43;;;20.50;1.00;;;;;;4961844;28;20497;-73
2021/07/22 01:10:47;;;;;;;9.47;8.53;;;20.40;1.00;;;;;;4958677;28;20580;-73
2021/07/22 01:13:13;;;;;;;11.00;9.27;;;20.40;1.00;;;;;;4959872;28;20834;-74
2021/07/22 01:15:40;;;;;;;10.47;9.30;;;20.40;1.00;;;;;;4961680;28;20453;-75
2021/07/22 01:18:08;;;;;;;9.87;8.87;;;20.40;1.00;;;;;;4964978;28;20465;-74
2021/07/22 01:20:36;;;;;;;10.60;9.10;;;20.40;1.00;;;;;;4963032;28;21099;-73
2021/07/22 01:23:03;;;;;;;9.40;8.50;;;20.40;1.00;;;;;;4962531;28;20836;-74
2021/07/22 01:25:30;;;;;;;10.27;9.17;;;20.40;1.00;;;;;;4965673;28;20460;-72
2021/07/22 01:27:57;;;;;;;11.97;9.90;;;20.40;1.00;;;;;;4965790;28;20613;-74
2021/07/22 01:30:24;;;;;;;9.40;8.40;;;20.40;1.00;;;;;;4966147;28;21003;-74
2021/07/22 01:32:52;;;;;;;9.90;8.90;;;20.40;1.00;;;;;;4965616;28;20940;-74
2021/07/22 01:35:19;;;;;;;10.57;9.40;;;20.40;1.00;;;;;;4966844;28;20517;-74
2021/07/22 01:37:49;;;;;;;9.53;8.53;;;20.40;1.00;;;;;;4962399;28;20964;-73
2021/07/22 01:40:18;;;;;;;10.03;9.03;;;20.30;1.00;;;;;;4966826;28;20508;-71
2021/07/22 01:42:45;;;;;;;11.13;10.00;;;20.30;1.00;;;;;;4963042;28;20454;-73
2021/07/22 01:45:12;;;;;;;11.60;9.90;;;20.30;1.00;;;;;;4965864;28;20471;-73
2021/07/22 01:47:40;;;;;;;10.17;9.17;;;20.30;1.00;;;;;;5032629;28;20440;-72
2021/07/22 01:50:08;;;;;;;15.23;10.80;;;20.30;1.00;;;;;;4962444;28;20484;-72
2021/07/22 01:52:34;;;;;;;13.77;12.00;;;20.30;1.00;;;;;;4963504;28;20491;-71
2021/07/22 01:55:03;;;;;;;15.17;10.10;;;20.20;1.00;;;;;;4962116;28;20467;-72
2021/07/22 01:57:29;;;;;;;11.03;9.93;;;20.30;1.00;;;;;;4966804;28;20452;-74
2021/07/22 02:00:04;;;;;;;9.80;8.80;;;20.30;1.00;;;;;;4963685;28;20460;-72
2021/07/22 02:02:31;;;;;;;10.20;9.20;;;20.30;1.00;;;;;;4963719;28;20472;-75
2021/07/22 02:04:57;;;;;;;11.47;10.10;;;20.30;1.00;;;;;;4966099;28;20463;-73
2021/07/22 02:07:24;;;;;;;10.20;9.10;;;20.20;1.00;;;;;;4965042;28;20472;-72
2021/07/22 02:09:50;;;;;;;9.80;8.70;;;20.20;1.00;;;;;;4982501;23;20476;-74
2021/07/22 02:12:18;;;;;;;10.27;9.17;;;20.20;1.00;;;;;;4969632;28;21113;-74
2021/07/22 02:14:47;;;;;;;9.63;8.73;;;20.10;1.00;;;;;;4966056;28;20440;-75
2021/07/22 02:17:14;;;;;;;11.10;9.30;;;20.10;1.00;;;;;;4965984;28;20536;-75
2021/07/22 02:19:40;;;;;;;10.53;9.40;;;20.10;1.00;;;;;;4994261;28;20456;-74
2021/07/22 02:22:07;;;;;;;11.13;10.00;;;20.00;1.00;;;;;;5047038;28;20444;-75
2021/07/22 02:24:33;;;;;;;11.93;10.23;;;19.90;1.00;;;;;;5045080;28;20479;-75
2021/07/22 02:27:01;;;;;;;11.30;9.80;;;19.90;1.00;;;;;;5042419;28;23539;-74
2021/07/22 02:29:29;;;;;;;10.47;9.40;;;19.90;1.00;;;;;;5042765;28;20439;-75
2021/07/22 02:31:56;;;;;;;10.90;9.63;;;19.90;1.00;;;;;;5049215;28;21137;-75
2021/07/22 02:34:22;;;;;;;11.90;9.30;;;19.90;1.00;;;;;;5047477;28;20968;-75
2021/07/22 02:36:49;;;;;;;10.77;9.67;;;19.90;1.00;;;;;;5043163;28;20437;-74
2021/07/22 02:39:15;;;;;;;10.83;9.73;;;19.90;1.00;;;;;;5046791;28;20460;-75
2021/07/22 02:41:42;;;;;;;11.10;9.90;;;19.90;1.00;;;;;;5043877;28;20450;-74
2021/07/22 02:44:09;;;;;;;10.77;9.50;;;19.90;1.00;;;;;;5044280;28;20468;-75
2021/07/22 02:46:37;;;;;;;12.07;10.67;;;19.90;1.00;;;;;;5044379;28;20552;-75
2021/07/22 02:49:03;;;;;;;12.10;9.90;;;19.90;1.00;;;;;;5024487;28;20467;-75
2021/07/22 02:51:30;;;;;;;13.07;9.67;;;19.80;1.00;;;;;;5044465;28;20737;-75
2021/07/22 02:53:57;;;;;;;12.40;10.20;;;19.80;1.00;;;;;;5043032;28;20994;-74
2021/07/22 02:56:23;;;;;;;11.73;10.40;;;19.70;1.00;;;;;;5042982;28;21172;-74
2021/07/22 02:58:50;;;;;;;12.67;10.83;;;19.70;1.00;;;;;;5038649;28;20460;-74
2021/07/22 03:01:16;;;;;;;12.33;11.03;;;19.60;1.00;;;;;;5046782;28;20788;-75
2021/07/22 03:03:44;;;;;;;12.23;10.40;;;19.60;1.00;;;;;;5042536;28;20971;-74
2021/07/22 03:06:15;;;;;;;11.30;10.17;;;19.50;1.00;;;;;;5044093;28;20447;-75
2021/07/22 03:08:42;;;;;;;11.00;9.70;;;19.50;1.00;;;;;;5047172;28;20475;-74
2021/07/22 03:11:09;;;;;;;11.80;10.60;;;19.50;1.00;;;;;;5045826;28;20492;-75
2021/07/22 03:13:36;;;;;;;11.13;9.33;;;19.50;1.00;;;;;;5040082;28;20917;-75
2021/07/22 03:16:03;;;;;;;10.37;9.20;;;19.50;1.00;;;;;;5043038;28;20877;-75
2021/07/22 03:18:29;;;;;;;11.63;10.40;;;19.40;1.00;;;;;;5045373;28;20459;-74
2021/07/22 03:20:59;;;;;;;10.80;9.70;;;19.40;1.00;;;;;;5041903;28;20536;-74
2021/07/22 03:23:26;;;;;;;10.70;9.60;;;19.40;1.00;;;;;;5045580;28;20931;-74
2021/07/22 03:25:53;;;;;;;11.27;9.90;;;19.30;1.00;;;;;;5042564;28;20471;-74
2021/07/22 03:28:19;;;;;;;11.80;10.27;;;19.30;1.00;;;;;;5043952;28;20449;-74
2021/07/22 03:30:46;;;;;;;13.30;11.50;;;19.30;1.00;;;;;;5043569;28;20797;-76
2021/07/22 03:33:13;;;;;;;13.60;11.20;;;19.20;1.00;;;;;;5041921;28;20456;-75
2021/07/22 03:35:41;;;;;;;20.13;18.10;;;19.20;1.00;;;;;;5040973;28;20630;-76
2021/07/22 03:38:09;;;;;;;11.33;9.90;;;19.20;1.00;;;;;;5046675;28;20542;-74
2021/07/22 03:40:36;;;;;;;13.30;10.23;;;19.10;1.00;;;;;;5046736;28;20452;-75
2021/07/22 03:43:02;;;;;;;11.60;9.40;;;19.10;1.00;;;;;;5044185;28;20452;-76
2021/07/22 03:45:29;;;;;;;10.70;9.60;;;19.10;1.00;;;;;;5045019;28;20486;-75
2021/07/22 03:47:59;;;;;;;14.40;13.00;;;19.10;1.00;;;;;;5042294;28;20433;-75
2021/07/22 03:50:26;;;;;;;14.00;12.33;;;19.10;1.00;;;;;;5042631;28;20468;-74
2021/07/22 03:52:56;;;;;;;13.73;11.70;;;19.00;1.00;;;;;;5043804;28;20549;-76
2021/07/22 03:55:25;;;;;;;12.80;11.50;;;19.00;1.00;;;;;;5044126;28;20443;-74
2021/07/22 03:57:52;;;;;;;12.13;10.60;;;19.00;1.00;;;;;;5044047;28;20476;-75
2021/07/22 04:00:19;;;;;;;14.13;11.60;;;19.00;1.00;;;;;;5043063;28;20491;-75
2021/07/22 04:02:46;;;;;;;13.47;10.93;;;19.10;1.00;;;;;;5023729;28;20460;-75
2021/07/22 04:05:13;;;;;;;13.43;10.63;;;19.10;1.00;;;;;;5046641;28;20917;-75
2021/07/22 04:07:40;;;;;;;12.93;10.90;;;19.10;1.00;;;;;;5040489;28;20475;-75
2021/07/22 04:10:07;;;;;;;16.43;11.63;;;19.20;1.00;;;;;;5042327;28;20466;-75
2021/07/22 04:12:36;;;;;;;12.63;10.93;;;19.20;1.00;;;;;;5045834;28;20461;-74
2021/07/22 04:15:02;;;;;;;13.03;11.10;;;19.20;1.00;;;;;;5046929;28;20455;-74
2021/07/22 04:17:29;;;;;;;12.73;10.57;;;19.30;1.00;;;;;;5049269;28;21060;-75
2021/07/22 04:19:56;;;;;;;14.40;11.50;;;19.30;1.00;;;;;;5042922;28;20478;-74
2021/07/22 04:22:23;;;;;;;16.70;11.53;;;19.30;1.00;;;;;;5041744;28;20464;-74
2021/07/22 04:24:49;;;;;;;15.90;11.00;;;19.30;1.00;;;;;;5045755;28;20460;-74
2021/07/22 04:27:16;;;;;;;11.90;10.70;;;19.30;1.00;;;;;;5042621;28;20887;-75
2021/07/22 04:29:44;;;;;;;18.83;14.77;;;19.30;1.00;;;;;;5045991;28;20535;-75
2021/07/22 04:32:10;;;;;;;13.10;10.97;;;19.30;1.00;;;;;;5039225;28;21234;-75
2021/07/22 04:34:37;;;;;;;17.40;12.20;;;19.20;1.00;;;;;;5045447;28;20436;-75
2021/07/22 04:37:05;;;;;;;11.60;10.40;;;19.20;1.00;;;;;;5042515;28;20416;-78
2021/07/22 04:39:32;;;;;;;12.13;10.90;;;19.30;1.00;;;;;;5053958;28;20448;-81
2021/07/22 04:41:58;;;;;;;12.80;10.77;;;19.30;1.00;;;;;;5051824;28;20586;-77
2021/07/22 04:44:26;;;;;;;12.73;11.37;;;19.40;1.00;;;;;;5047782;28;20547;-79
2021/07/22 04:46:55;;;;;;;13.23;11.40;;;19.40;1.00;;;;;;5053019;28;20529;-78
2021/07/22 04:49:21;;;;;;;13.30;10.97;;;19.50;1.00;;;;;;5049863;28;21240;-79
2021/07/22 04:51:49;;;;;;;14.20;11.77;;;19.60;1.00;;;;;;5048395;28;20447;-80
2021/07/22 04:54:16;;;;;;;14.73;11.90;;;19.70;1.00;;;;;;5053669;28;20462;-78
2021/07/22 04:56:43;;;;;;;13.43;10.83;;;19.80;1.00;;;;;;5048898;28;21197;-78
2021/07/22 04:59:09;;;;;;;17.47;12.63;;;19.90;1.00;;;;;;5053477;28;20460;-79
2021/07/22 05:01:36;;;;;;;13.13;11.00;;;20.00;1.00;;;;;;5052426;28;21331;-77
2021/07/22 05:04:05;;;;;;;13.20;11.80;;;20.10;1.00;;;;;;5051212;28;20444;-78
2021/07/22 05:06:31;;;;;;;13.50;11.33;;;20.20;1.00;;;;;;5052376;28;20866;-78
2021/07/22 05:08:58;;;;;;;14.23;11.70;;;20.20;1.00;;;;;;5051700;28;20444;-74
2021/07/22 05:11:25;;;;;;;13.10;10.77;;;20.30;1.00;;;;;;5047070;28;21010;-75
2021/07/22 05:13:51;;;;;;;12.70;11.30;;;20.30;1.00;;;;;;5050602;28;20942;-75
2021/07/22 05:16:19;;;;;;;13.07;10.63;;;20.30;1.00;;;;;;5052678;28;20440;-75
2021/07/22 05:18:45;;;;;;;14.83;12.83;;;20.40;1.00;;;;;;5043623;28;21058;-75
2021/07/22 05:21:13;;;;;;;12.10;10.90;;;20.40;1.00;;;;;;5046199;28;20457;-74
2021/07/22 05:23:41;;;;;;;12.93;10.90;;;20.50;1.00;;;;;;5047367;28;21069;-75
2021/07/22 05:26:10;;;;;;;15.37;12.87;;;20.60;1.00;;;;;;5047451;28;20491;-75
2021/07/22 05:28:38;;;;;;;14.03;12.63;;;20.60;1.00;;;;;;5047940;28;21145;-74
2021/07/22 05:31:06;;;;;;;13.03;11.63;;;20.70;1.00;;;;;;5044418;28;21440;-74
2021/07/22 05:33:33;;;;;;;11.97;10.50;;;20.70;1.00;;;;;;5048627;28;20774;-74
2021/07/22 05:36:02;;;;;;;13.23;11.83;;;20.80;1.00;;;;;;5045456;28;20443;-74
2021/07/22 05:38:30;;;;;;;17.00;12.33;;;20.80;1.00;;;;;;5046572;28;20461;-74
2021/07/22 05:40:59;;;;;;;11.27;10.17;;;20.90;1.00;;;;;;5048385;28;20639;-74
2021/07/22 05:43:26;;;;;;;12.30;10.77;;;20.90;1.00;;;;;;5045352;28;20429;-75
2021/07/22 05:45:53;;;;;;;12.33;11.10;;;21.00;1.00;;;;;;5049873;28;20578;-75
2021/07/22 05:48:19;;;;;;;13.80;11.27;;;21.00;1.00;;;;;;5049333;28;20565;-75
2021/07/22 05:50:46;;;;;;;12.43;11.17;;;21.00;1.00;;;;;;5049959;28;20467;-74
2021/07/22 05:53:13;;;;;;;12.13;11.03;;;21.10;1.00;;;;;;5047605;28;21008;-76
2021/07/22 05:55:41;;;;;;;17.37;11.63;;;21.20;1.00;;;;;;5056114;28;20497;-76
2021/07/22 05:58:08;;;;;;;12.00;10.77;;;21.20;1.00;;;;;;5056225;28;20524;-77
2021/07/22 06:00:34;;;;;;;12.03;10.93;;;21.40;1.00;;;;;;5053794;28;20807;-76
2021/07/22 06:03:04;;;;;;;13.40;12.00;;;21.40;1.00;;;;;;5056458;28;22174;-79
2021/07/22 06:05:30;;;;;;;14.07;12.53;;;21.40;1.00;;;;;;5048279;28;20982;-76
2021/07/22 06:07:58;;;;;;;13.77;12.43;;;21.50;1.00;;;;;;5051561;28;20473;-75
2021/07/22 06:10:25;;;;;;;11.90;10.70;;;21.60;1.00;;;;;;5053225;28;21235;-77
2021/07/22 06:12:54;;;;;;;14.00;11.73;;;21.60;1.00;;;;;;5055575;28;20455;-76
2021/07/22 06:15:20;;;;;;;13.53;12.10;;;21.60;1.00;;;;;;5054137;28;20477;-77
2021/07/22 06:17:47;;;;;;;11.90;10.80;;;21.60;1.00;;;;;;5056048;28;20558;-75
2021/07/22 06:20:15;;;;;;;12.73;11.37;;;21.40;1.00;;;;;;5043410;28;20461;-77
2021/07/22 06:22:44;;;;;;;12.37;11.07;;;21.40;1.00;;;;;;5054565;28;20473;-76
2021/07/22 06:25:12;;;;;;;12.20;11.10;;;21.40;1.00;;;;;;5052039;28;20452;-77
2021/07/22 06:27:39;;;;;;;12.00;10.70;;;21.50;1.00;;;;;;5054982;28;21028;-76
2021/07/22 06:30:09;;;;;;;11.80;10.60;;;21.50;1.00;;;;;;5037729;28;20454;-77
2021/07/22 06:32:36;;;;;;;12.13;10.87;;;21.60;1.00;;;;;;5052664;28;20449;-75
2021/07/22 06:35:02;;;;;;;13.10;10.90;;;21.60;1.00;;;;;;5047401;28;20963;-77
2021/07/22 06:37:29;;;;;;;11.10;10.00;;;21.70;1.00;;;;;;5053347;28;20541;-77
2021/07/22 06:39:56;;;;;;;13.00;11.10;;;21.70;1.00;;;;;;5058213;28;20487;-76
2021/07/22 06:42:23;;;;;;;10.70;9.77;;;21.60;1.00;;;;;;5059356;28;20457;-78
2021/07/22 06:44:50;;;;;;;11.77;10.57;;;21.60;1.00;;;;;;5054890;28;20464;-76
2021/07/22 06:47:18;;;;;;;12.10;10.90;;;21.70;1.00;;;;;;5058304;28;20449;-77
2021/07/22 06:49:45;;;;;;;11.40;10.10;;;21.80;1.00;;;;;;5048897;28;20478;-78
2021/07/22 06:52:11;;;;;;;12.23;10.90;;;21.90;1.00;;;;;;5049696;28;21083;-75
2021/07/22 06:54:38;;;;;;;11.77;10.73;;;22.10;1.00;;;;;;5053401;28;20868;-76
2021/07/22 06:57:05;;;;;;;12.43;11.23;;;22.10;1.00;;;;;;5047835;28;20447;-76
2021/07/22 06:59:32;;;;;;;11.87;10.77;;;22.30;1.00;;;;;;5051511;28;20954;-78
2021/07/22 07:01:58;;;;;;;11.67;10.23;;;22.40;1.00;;;;;;5050365;28;20440;-76
2021/07/22 07:04:26;;;;;;;12.13;10.27;;;22.50;1.00;;;;;;5054217;28;20472;-76
2021/07/22 07:06:53;;;;;;;13.00;10.10;;;22.70;1.00;;;;;;5051366;28;21918;-78
2021/07/22 07:09:19;;;;;;;13.73;10.33;;;22.80;1.00;;;;;;5047624;28;20455;-78
2021/07/22 07:11:46;;;;;;;11.53;9.87;;;22.80;1.00;;;;;;5052622;28;20830;-77
2021/07/22 07:14:13;;;;;;;11.87;10.60;;;22.80;1.00;;;;;;5056310;28;21025;-77
2021/07/22 07:16:40;;;;;;;11.87;10.53;;;22.90;1.00;;;;;;5039457;28;20445;-76
2021/07/22 07:19:07;;;;;;;12.43;11.20;;;22.80;1.00;;;;;;5056056;28;20459;-78
2021/07/22 07:21:37;;;;;;;13.40;10.23;;;22.80;1.00;;;;;;5058390;28;20451;-78
2021/07/22 07:24:04;;;;;;;13.40;10.90;;;22.90;1.00;;;;;;5058081;28;20467;-77
2021/07/22 07:26:30;;;;;;;11.13;10.03;;;22.90;1.00;;;;;;5058929;28;20982;-78
2021/07/22 07:28:57;;;;;;;11.37;9.97;;;23.00;1.00;;;;;;5056053;28;20451;-77
2021/07/22 07:31:24;;;;;;;11.43;10.10;;;23.10;1.00;;;;;;5055800;28;20459;-77
2021/07/22 07:33:51;;;;;;;11.87;10.60;;;23.20;1.00;;;;;;5056681;28;21218;-78
2021/07/22 07:36:18;;;;;;;11.17;10.00;;;23.30;1.00;;;;;;5060066;28;20439;-78
2021/07/22 07:38:46;;;;;;;13.50;12.10;;;23.30;1.00;;;;;;5056740;28;20463;-79
2021/07/22 07:41:12;;;;;;;12.47;11.17;;;23.30;1.00;;;;;;5056009;28;23511;-78
2021/07/22 07:43:39;;;;;;;14.17;10.80;;;23.40;1.00;;;;;;5052267;28;20461;-78
2021/07/22 07:46:06;;;;;;;10.93;9.83;;;23.50;1.00;;;;;;5054309;28;20423;-77
2021/07/22 07:48:32;;;;;;;11.50;10.40;;;23.40;1.00;;;;;;5054307;28;20463;-77
2021/07/22 07:51:01;;;;;;;11.70;10.53;;;23.40;1.00;;;;;;5054901;28;20447;-77
2021/07/22 07:53:27;;;;;;;12.87;11.00;;;23.50;1.00;;;;;;5052157;28;20452;-77
2021/07/22 07:55:55;;;;;;;12.03;10.80;;;23.70;1.00;;;;;;5053245;28;20401;-77
2021/07/22 07:58:22;;;;;;;11.17;9.93;;;23.80;1.00;;;;;;5055829;28;20846;-77
2021/07/22 08:00:49;;;;;;;11.23;9.57;;;24.00;1.00;;;;;;5048742;28;20437;-77
2021/07/22 08:03:18;;;;;;;11.07;9.93;;;24.10;1.00;;;;;;5048796;28;20439;-77
2021/07/22 08:05:45;;;;;;;11.03;10.00;;;24.00;1.00;;;;;;5034714;28;20504;-79
2021/07/22 08:08:12;;;;;;;10.33;9.13;;;23.90;1.00;;;;;;5054130;28;20440;-78
2021/07/22 08:10:40;;;;;;;11.40;10.10;;;23.80;1.00;;;;;;5049456;28;21536;-77
2021/07/22 08:15:37;;;;;;;11.23;10.07;;;24.10;1.00;;;;;;4996098;28;20449;-77
2021/07/22 08:18:03;;;;;;;12.23;10.17;;;24.40;1.00;;;;;;4998769;28;20464;-76
2021/07/22 08:20:30;;;;;;;13.93;10.50;;;24.60;1.00;;;;;;4989098;28;20455;-74
2021/07/22 08:22:57;;;;;;;10.13;8.97;;;24.80;1.00;;;;;;4988711;28;21062;-76
2021/07/22 08:25:24;;;;;;;11.43;9.50;;;25.10;1.00;;;;;;5069777;27;20540;-74
2021/07/22 08:27:51;;;;;;;10.70;8.57;;;25.20;1.00;;;;;;4983255;28;20908;-76
2021/07/22 08:30:17;;;;;;;14.70;10.37;;;25.40;1.00;;;;;;4984084;28;21224;-75
2021/07/22 08:32:46;;;;;;;9.80;8.80;;;25.50;1.00;;;;;;4985800;28;20542;-74
2021/07/22 08:35:14;;;;;;;9.90;8.90;;;25.60;1.00;;;;;;4985758;28;20475;-73
2021/07/22 08:37:41;;;;;;;11.00;9.13;;;25.70;1.00;;;;;;4991339;28;20473;-75
2021/07/22 08:40:11;;;;;;;10.30;9.30;;;25.80;1.00;;;;;;4986968;28;21250;-73
2021/07/22 08:42:40;;;;;;;11.30;10.20;;;26.00;1.00;;;;;;4984032;28;20452;-73
2021/07/22 08:45:08;;;;;;;12.00;9.70;;;26.10;1.00;;;;;;4985715;28;20470;-75
2021/07/22 08:47:36;;;;;;;10.73;9.73;;;25.90;1.00;;;;;;4984688;28;20466;-74
2021/07/22 08:50:06;;;;;;;9.47;8.53;;;25.80;1.00;;;;;;4989472;28;21246;-72
2021/07/22 08:52:33;;;;;;;8.47;7.60;;;26.10;1.00;;;;;;4985899;28;20447;-75
2021/07/22 08:54:59;;;;;;;9.13;8.27;;;26.10;1.00;;;;;;4987554;28;21158;-75
2021/07/22 08:57:31;;;;;;;8.23;7.40;;;26.00;1.00;;;;;;4987939;28;20840;-74
2021/07/22 08:59:59;;;;;;;9.40;8.50;;;26.00;1.00;;;;;;4987543;28;20562;-74
2021/07/22 09:02:29;;;;;;;11.50;9.20;;;25.80;1.00;;;;;;4988253;28;20490;-74
2021/07/22 09:04:57;;;;;;;10.23;9.30;;;25.60;1.00;;;;;;4985998;28;20550;-75
2021/07/22 09:07:25;;;;;;;9.43;7.60;;;25.50;1.00;;;;;;4986535;28;20557;-74
2021/07/22 09:10:16;;;;;;;8.97;8.17;;;25.50;1.00;;;;;;4987460;28;21017;-76
2021/07/22 09:12:44;;;;;;;9.40;8.50;;;25.50;1.00;;;;;;5053966;28;20454;-74
2021/07/22 09:15:12;;;;;;;8.63;7.87;;;25.60;1.00;;;;;;4993491;28;21068;-75
2021/07/22 09:17:39;;;;;;;12.47;8.80;;;25.60;1.00;;;;;;4992165;28;21196;-74
2021/07/22 09:20:12;;;;;;;10.10;9.10;;;25.50;1.00;;;;;;4987871;28;20451;-73
2021/07/22 09:22:42;;;;;;;9.10;8.20;;;25.70;1.00;;;;;;4990201;28;20452;-73
2021/07/22 09:25:09;;;;;;;9.40;8.50;;;25.50;1.00;;;;;;4987841;28;20612;-74
2021/07/22 09:27:40;;;;;;;10.80;9.20;;;25.50;1.00;;;;;;4986357;28;20486;-75
2021/07/22 09:30:09;;;;;;;9.67;8.67;;;25.50;1.00;;;;;;4986481;28;21227;-73
2021/07/22 09:32:37;;;;;;;9.87;8.87;;;25.50;1.00;;;;;;4988990;28;21036;-74
2021/07/22 09:35:08;;;;;;;9.07;8.17;;;25.50;1.00;;;;;;4992178;28;20459;-75
2021/07/22 09:37:35;;;;;;;9.87;8.87;;;25.70;1.00;;;;;;5069227;27;20981;-74
2021/07/22 09:40:04;;;;;;;8.80;7.90;;;26.10;1.00;;;;;;4991948;28;20449;-74
2021/07/22 09:42:41;;;;;;;11.27;9.33;;;26.90;1.00;;;;;;4987770;28;21036;-74
2021/07/22 09:45:15;;;;;;;9.03;8.17;;;28.60;1.00;;;;;;4989544;28;20455;-71
2021/07/22 09:47:42;;;;;;;8.10;7.40;;;28.90;1.00;;;;;;4988466;28;20969;-75
2021/07/22 09:50:09;;;;;;;8.23;7.40;;;28.30;1.00;;;;;;4986885;28;20445;-74
2021/07/22 09:52:36;;;;;;;8.67;7.77;;;27.70;1.00;;;;;;4986100;28;20449;-73
2021/07/22 09:55:23;;;;;;;9.20;8.40;;;27.30;1.00;;;;;;4990127;28;20469;-75
2021/07/22 09:57:54;;;;;;;8.50;7.50;;;26.90;1.00;;;;;;4988750;28;20422;-74
2021/07/22 10:00:21;;;;;;;8.17;7.37;;;26.80;1.00;;;;;;4990376;28;20474;-73
2021/07/22 10:02:51;;;;;;;8.03;7.33;;;27.70;1.00;;;;;;4989997;28;20527;-72
2021/07/22 10:05:20;;;;;;;8.30;7.50;;;29.70;1.00;;;;;;4994773;28;20946;-73
2021/07/22 10:07:48;;;;;;;9.07;8.17;;;31.40;1.00;;;;;;4986856;28;21018;-77
2021/07/22 10:10:17;;;;;;;10.10;8.10;;;31.20;1.00;;;;;;4990794;28;20481;-74
2021/07/22 10:12:50;;;;;;;8.97;8.07;;;30.20;1.00;;;;;;4982078;28;21092;-75
2021/07/22 10:15:18;;;;;;;7.80;7.10;;;29.40;1.00;;;;;;4990214;28;20452;-75
2021/07/22 10:17:47;;;;;;;11.90;7.67;;;28.80;1.00;;;;;;4987132;28;20457;-74
2021/07/22 10:20:15;;;;;;;8.20;7.40;;;28.40;1.00;;;;;;4987164;28;20960;-78
2021/07/22 10:22:44;;;;;;;7.70;6.90;;;28.00;1.00;;;;;;4991937;28;21337;-78
2021/07/22 10:25:13;;;;;;;11.47;7.60;;;27.60;1.00;;;;;;4996142;28;20522;-78
2021/07/22 10:27:45;;;;;;;7.70;7.00;;;27.30;1.00;;;;;;4999705;28;20545;-76
2021/07/22 10:30:13;;;;;;;8.80;7.87;;;27.10;1.00;;;;;;4990991;28;21529;-76
2021/07/22 10:32:47;;;;;;;7.53;6.83;;;26.90;1.00;;;;;;4991004;28;20506;-78
2021/07/22 10:35:14;;;;;;;8.90;8.07;;;26.80;1.00;;;;;;4991452;28;21003;-77
2021/07/22 10:38:04;;;;;;;8.90;8.00;;;26.50;1.00;;;;;;4990750;28;20472;-77
2021/07/22 10:40:48;;;;;;;9.30;8.40;;;26.20;1.00;;;;;;4991855;28;20444;-78
2021/07/22 10:43:39;;;;;;;8.13;7.33;;;26.10;1.00;;;;;;5071020;27;20439;-78
2021/07/22 10:46:08;;;;;;;9.17;7.87;;;26.00;1.00;;;;;;4990883;28;20430;-77
2021/07/22 10:48:35;;;;;;;8.87;8.07;;;25.80;1.00;;;;;;4990252;28;20528;-77
2021/07/22 10:51:04;;;;;;;8.40;7.60;;;25.80;1.00;;;;;;4987950;28;20786;-76
2021/07/22 10:53:42;;;;;;;9.73;8.73;;;25.60;1.00;;;;;;4989669;28;20498;-76
2021/07/22 10:56:10;;;;;;;9.67;8.77;;;25.50;1.00;;;;;;4989432;28;20498;-78
2021/07/22 10:58:55;;;;;;;8.70;7.90;;;25.30;1.00;;;;;;4987746;28;20546;-78
2021/07/22 11:01:58;;;;;;;8.60;7.43;;;25.10;1.00;;;;;;4986226;28;20451;-78
2021/07/22 11:04:43;;;;;;;10.43;9.53;;;24.90;1.00;;;;;;4985500;28;20470;-77
2021/07/22 11:07:18;;;;;;;10.03;8.90;;;24.80;1.00;;;;;;4989106;28;20462;-77
2021/07/22 11:09:46;;;;;;;9.63;8.13;;;24.60;1.00;;;;;;4982846;28;20543;-76
2021/07/22 11:12:44;;;;;;;12.60;9.40;;;24.50;1.00;;;;;;4992838;28;21004;-76
2021/07/22 11:15:15;;;;;;;9.37;8.40;;;24.40;1.00;;;;;;4982165;28;20511;-77
2021/07/22 11:17:44;;;;;;;8.70;7.70;;;24.30;1.00;;;;;;4987238;28;20481;-77
2021/07/22 11:20:34;;;;;;;9.73;8.73;;;24.20;1.00;;;;;;4986007;28;20472;-76
2021/07/22 11:23:13;;;;;;;11.17;8.27;;;24.00;1.00;;;;;;4985543;28;20467;-76
2021/07/22 11:25:49;;;;;;;8.70;7.90;;;24.00;1.00;;;;;;4987180;28;20565;-77
2021/07/22 11:28:22;;;;;;;9.80;8.77;;;23.90;1.00;;;;;;4986495;28;20491;-77
2021/07/22 11:31:07;;;;;;;9.80;8.43;;;23.80;1.00;;;;;;4986793;28;20512;-78
2021/07/22 11:33:35;;;;;;;9.87;8.87;;;23.80;1.00;;;;;;4985605;28;20442;-76
2021/07/22 11:36:27;;;;;;;10.93;9.83;;;23.80;1.00;;;;;;4998416;28;20458;-75
2021/07/22 11:39:31;;;;;;;9.13;8.27;;;23.80;1.00;;;;;;4989194;28;20447;-76
2021/07/22 11:42:03;;;;;;;10.03;9.03;;;23.70;1.00;;;;;;4988139;28;20455;-77
2021/07/22 11:44:30;;;;;;;10.07;9.00;;;23.70;1.00;;;;;;4984767;28;20454;-77
2021/07/22 11:46:58;;;;;;;10.90;9.30;;;23.60;1.00;;;;;;4988861;28;20464;-76
2021/07/22 11:49:32;;;;;;;10.53;9.43;;;23.70;1.00;;;;;;4989758;28;21242;-78
2021/07/22 11:51:58;;;;;;;12.73;10.17;;;23.70;1.00;;;;;;4993746;28;21202;-78
2021/07/22 11:54:25;;;;;;;11.30;10.20;;;23.80;1.00;;;;;;4993256;28;20949;-77
2021/07/22 11:56:56;;;;;;;13.70;10.10;;;23.90;1.00;;;;;;4992116;28;20495;-77
2021/07/22 11:59:27;;;;;;;9.90;9.00;;;24.00;1.00;;;;;;4992744;28;20449;-78
2021/07/22 12:01:56;;;;;;;10.47;9.33;;;24.10;1.00;;;;;;4991906;28;20461;-78
2021/07/22 12:04:26;;;;;;;11.80;10.07;;;24.20;1.00;;;;;;4992498;28;20469;-78
2021/07/22 12:06:54;;;;;;;12.97;9.77;;;24.20;1.00;;;;;;5007454;28;20483;-77
2021/07/22 12:09:21;;;;;;;9.20;8.30;;;24.20;1.00;;;;;;4991489;28;20493;-75
2021/07/22 12:11:49;;;;;;;9.83;8.80;;;24.20;1.00;;;;;;4984012;28;20457;-77
2021/07/22 12:14:25;;;;;;;11.77;9.67;;;24.10;1.00;;;;;;4990836;28;20479;-78
2021/07/22 12:16:51;;;;;;;10.40;9.37;;;24.20;1.00;;;;;;4994413;28;20472;-79
2021/07/22 12:19:24;;;;;;;10.00;9.00;;;24.20;1.00;;;;;;4985090;28;20513;-77
2021/07/22 12:22:20;;;;;;;14.20;10.60;;;24.20;1.00;;;;;;4984605;28;20465;-77
2021/07/22 12:24:47;;;;;;;11.63;9.53;;;24.20;1.00;;;;;;4985230;28;20451;-76
2021/07/22 12:27:31;;;;;;;11.07;9.93;;;24.30;1.00;;;;;;4987789;28;20463;-77
2021/07/22 12:29:58;;;;;;;11.07;9.90;;;24.30;1.00;;;;;;4987581;28;20458;-76
2021/07/22 12:32:28;;;;;;;10.40;9.40;;;24.50;1.00;;;;;;4990387;28;20591;-77
2021/07/22 12:34:56;;;;;;;12.07;10.87;;;24.60;1.00;;;;;;4987246;28;20535;-76
2021/07/22 12:37:54;;;;;;;10.43;9.43;;;24.80;1.00;;;;;;4987507;28;20453;-76
2021/07/22 12:40:34;;;;;;;10.33;9.33;;;24.90;1.00;;;;;;4988877;28;20478;-76
2021/07/22 12:43:02;;;;;;;10.17;9.20;;;25.10;1.00;;;;;;4984441;28;21288;-77
2021/07/22 12:45:29;;;;;;;16.80;15.40;;;25.30;1.00;;;;;;4990463;28;20453;-77
2021/07/22 12:47:56;;;;;;;13.50;11.10;;;25.50;1.00;;;;;;4993274;28;20466;-77
2021/07/22 12:50:31;;;;;;;10.60;9.50;;;25.60;1.00;;;;;;4993205;28;20458;-78
2021/07/22 12:53:01;;;;;;;9.93;9.00;;;25.80;1.00;;;;;;4992531;28;20451;-76
2021/07/22 12:55:33;;;;;;;10.87;9.83;;;25.90;1.00;;;;;;4987962;28;20451;-77
2021/07/22 12:58:01;;;;;;;11.03;9.80;;;25.90;1.00;;;;;;4983531;28;20994;-78